Terminal Aerodrome Forecast
Issued by NWS North Platte, NE

Home | Current Version | Previous Version | Text Only | Print | Product List | Glossary On
Versions: 1 2 3 4 5 6 7 8 9 10 11 12
428
FTUS43 KLBF 232320
TAFLBF
TAF
KLBF 232320Z 2400/2424 18017G25KT P6SM BKN250
     FM240300 16011KT P6SM BKN250
     FM240600 16012G19KT P6SM BKN250
     FM241300 19011KT P6SM SCT150 BKN200
     FM241500 29012G18KT P6SM SCT150 BKN200
     FM241700 32013G20KT P6SM BKN250
     FM242300 32007KT P6SM BKN250=

USA.gov is the U.S. government's official web portal to all federal, state and local government web resources and services.